createdAt,value
2017-09-22T00:00:16.350Z,65.50
2017-09-22T00:02:43.930Z,65.90
2017-09-22T00:05:11.490Z,66.20
2017-09-22T00:07:39.050Z,65.90
2017-09-22T00:10:06.602Z,66.00
2017-09-22T00:12:34.157Z,66.10
2017-09-22T00:15:01.744Z,65.70
2017-09-22T00:17:30.062Z,66.30
2017-09-22T00:19:57.618Z,66.30
2017-09-22T00:22:25.190Z,66.20
2017-09-22T00:24:52.745Z,65.80
2017-09-22T00:27:20.325Z,66.00
2017-09-22T00:29:47.886Z,66.00
2017-09-22T00:32:15.437Z,65.70
2017-09-22T00:34:42.999Z,66.10
2017-09-22T00:37:10.558Z,65.90
2017-09-22T00:39:38.142Z,65.50
2017-09-22T00:42:06.465Z,65.60
2017-09-22T00:44:34.022Z,65.50
2017-09-22T00:47:01.578Z,65.20
2017-09-22T00:49:29.150Z,65.20
2017-09-22T00:51:56.730Z,65.30
2017-09-22T00:54:25.798Z,66.60
2017-09-22T00:56:53.358Z,66.50
2017-09-22T00:59:20.911Z,66.40
2017-09-22T01:01:48.473Z,66.00
2017-09-22T01:04:16.072Z,66.40
2017-09-22T01:06:43.634Z,66.40
2017-09-22T01:09:11.195Z,66.20
2017-09-22T01:11:39.533Z,66.10
2017-09-22T01:14:07.087Z,66.10
2017-09-22T01:16:34.876Z,66.10
2017-09-22T01:19:02.434Z,65.90
2017-09-22T01:21:30.003Z,66.10
2017-09-22T01:23:57.575Z,66.50
2017-09-22T01:26:25.897Z,66.40
2017-09-22T01:28:53.482Z,66.30
2017-09-22T01:31:21.033Z,65.90
2017-09-22T01:33:48.594Z,65.90
2017-09-22T01:36:16.153Z,66.20
2017-09-22T01:38:43.718Z,66.30
2017-09-22T01:41:11.303Z,66.70
2017-09-22T01:43:39.630Z,66.60
2017-09-22T01:46:07.238Z,66.50
2017-09-22T01:48:34.790Z,66.40
2017-09-22T01:51:02.355Z,66.70
2017-09-22T01:53:29.943Z,66.20
2017-09-22T01:55:57.503Z,66.30
2017-09-22T01:58:25.058Z,66.30
2017-09-22T02:00:52.613Z,66.50
2017-09-22T02:03:20.941Z,66.10
2017-09-22T02:05:48.525Z,66.00
2017-09-22T02:08:16.086Z,66.50
2017-09-22T02:10:43.642Z,66.50
2017-09-22T02:13:11.202Z,66.10
2017-09-22T02:15:38.758Z,65.90
2017-09-22T02:18:06.482Z,65.50
2017-09-22T02:20:34.037Z,65.80
2017-09-22T02:23:01.596Z,66.40
2017-09-22T02:25:29.153Z,65.90
2017-09-22T02:27:56.708Z,66.00
2017-09-22T02:30:24.282Z,66.10
2017-09-22T02:32:51.850Z,66.10
2017-09-22T02:35:19.406Z,66.20
2017-09-22T02:37:46.973Z,65.70
2017-09-22T02:40:14.534Z,65.60
2017-09-22T02:42:42.142Z,65.50
2017-09-22T02:45:09.699Z,65.00
2017-09-22T02:47:37.267Z,64.60
2017-09-22T02:50:04.834Z,64.20
2017-09-22T02:52:32.394Z,64.90
2017-09-22T02:54:59.979Z,64.60
2017-09-22T02:57:27.536Z,64.30
2017-09-22T02:59:55.089Z,64.30
2017-09-22T03:02:22.686Z,64.00
2017-09-22T03:04:51.065Z,64.60
2017-09-22T03:07:18.646Z,65.30
2017-09-22T03:09:46.212Z,65.00
2017-09-22T03:12:13.767Z,64.20
2017-09-22T03:14:41.317Z,63.90
2017-09-22T03:17:09.641Z,63.70
2017-09-22T03:19:37.425Z,63.70
2017-09-22T03:22:04.978Z,63.60
2017-09-22T03:24:32.555Z,63.80
2017-09-22T03:27:00.111Z,63.90
2017-09-22T03:29:27.673Z,64.10
2017-09-22T03:31:55.258Z,63.90
2017-09-22T03:34:23.698Z,64.10
2017-09-22T03:36:51.258Z,64.10
2017-09-22T03:39:18.818Z,64.90
2017-09-22T03:41:46.382Z,65.10
2017-09-22T03:44:13.973Z,64.80
2017-09-22T03:46:42.300Z,65.20
2017-09-22T03:49:09.857Z,65.20
2017-09-22T03:51:37.424Z,65.00
2017-09-22T03:54:04.984Z,64.60
2017-09-22T03:56:32.567Z,64.60
2017-09-22T03:59:00.171Z,65.00
2017-09-22T04:01:27.730Z,65.00
2017-09-22T04:03:55.294Z,65.00
2017-09-22T04:06:22.863Z,64.90
2017-09-22T04:08:50.450Z,65.00
2017-09-22T04:11:18.012Z,64.80
2017-09-22T04:13:45.563Z,64.70
2017-09-22T04:16:13.119Z,64.50
2017-09-22T04:18:40.674Z,64.50
2017-09-22T04:21:08.271Z,64.40
2017-09-22T04:23:36.593Z,64.30
2017-09-22T04:26:04.149Z,64.30
2017-09-22T04:28:31.714Z,64.40
2017-09-22T04:30:59.273Z,64.30
2017-09-22T04:36:04.216Z,64.30
2017-09-22T04:38:31.801Z,64.20
2017-09-22T04:40:59.445Z,64.80
2017-09-22T04:43:27.000Z,64.60
2017-09-22T04:45:54.580Z,64.90
2017-09-22T04:48:22.133Z,64.90
2017-09-22T04:50:49.898Z,64.80
2017-09-22T04:53:17.463Z,65.00
2017-09-22T04:55:45.030Z,65.10
2017-09-22T04:58:13.351Z,65.00
2017-09-22T05:00:40.906Z,65.00
2017-09-22T05:03:08.498Z,65.00
2017-09-22T05:05:36.050Z,64.70
2017-09-22T05:08:03.602Z,64.40
2017-09-22T05:10:31.161Z,64.40
2017-09-22T05:12:58.722Z,64.40
2017-09-22T05:15:26.304Z,64.70
2017-09-22T05:17:53.855Z,64.90
2017-09-22T05:20:21.427Z,64.90
2017-09-22T05:22:48.985Z,65.40
2017-09-22T05:25:16.538Z,65.60
2017-09-22T05:27:44.138Z,65.90
2017-09-22T05:30:12.457Z,65.60
2017-09-22T05:32:40.127Z,66.30
2017-09-22T05:35:07.963Z,65.50
2017-09-22T05:37:35.770Z,64.50
2017-09-22T05:40:03.570Z,64.20
2017-09-22T05:42:32.073Z,64.70
2017-09-22T05:44:59.970Z,64.70
2017-09-22T05:47:28.084Z,64.30
2017-09-22T05:49:56.493Z,63.90
2017-09-22T05:52:24.175Z,63.90
2017-09-22T05:54:51.928Z,64.40
2017-09-22T05:57:19.485Z,64.30
2017-09-22T05:59:47.046Z,64.00
2017-09-22T06:02:14.623Z,64.40
2017-09-22T06:04:42.205Z,64.30
2017-09-22T06:07:10.078Z,64.20
2017-09-22T06:09:37.635Z,63.60
2017-09-22T06:12:05.897Z,63.60
2017-09-22T06:14:33.677Z,63.10
2017-09-22T06:17:01.666Z,63.00
2017-09-22T06:19:29.533Z,62.50
2017-09-22T06:21:58.317Z,61.50
2017-09-22T06:24:26.914Z,61.10
2017-09-22T06:26:54.471Z,61.10
2017-09-22T06:29:22.142Z,61.10
2017-09-22T06:31:49.928Z,61.50
2017-09-22T06:34:17.485Z,61.70
2017-09-22T06:36:45.057Z,61.70
2017-09-22T06:39:12.665Z,61.80
2017-09-22T06:41:41.005Z,62.20
2017-09-22T06:44:08.598Z,62.20
2017-09-22T06:46:37.202Z,61.60
2017-09-22T06:49:04.771Z,61.50
2017-09-22T06:51:32.629Z,61.00
2017-09-22T06:54:01.020Z,60.70
2017-09-22T06:56:28.579Z,60.10
2017-09-22T06:59:00.213Z,60.30
2017-09-22T07:01:27.925Z,60.90
2017-09-22T07:03:55.486Z,59.70
2017-09-22T07:06:23.042Z,59.20
2017-09-22T07:08:50.598Z,59.50
2017-09-22T07:11:18.177Z,59.70
2017-09-22T07:13:45.737Z,59.60
2017-09-22T07:16:13.346Z,59.80
2017-09-22T07:18:40.966Z,60.00
2017-09-22T07:21:09.295Z,59.60
2017-09-22T07:23:36.884Z,59.60
2017-09-22T07:26:04.438Z,59.50
2017-09-22T07:28:31.994Z,59.20
2017-09-22T07:31:00.302Z,58.80
2017-09-22T07:33:28.625Z,60.00
2017-09-22T07:35:56.219Z,59.90
2017-09-22T07:38:23.770Z,59.60
2017-09-22T07:40:51.326Z,59.10
2017-09-22T07:43:20.391Z,58.60
2017-09-22T07:45:47.962Z,58.60
2017-09-22T07:48:15.566Z,57.90
2017-09-22T07:50:43.905Z,57.70
2017-09-22T07:53:11.465Z,57.70
2017-09-22T07:55:39.020Z,57.50
2017-09-22T07:58:06.610Z,57.40
2017-09-22T08:00:34.964Z,55.80
2017-09-22T08:03:02.561Z,55.70
2017-09-22T08:05:30.901Z,54.00
2017-09-22T08:07:58.485Z,53.90
2017-09-22T08:10:26.812Z,54.60
2017-09-22T08:12:54.603Z,54.60
2017-09-22T08:15:22.160Z,54.80
2017-09-22T08:17:49.713Z,54.60
2017-09-22T08:20:17.269Z,53.20
2017-09-22T08:22:44.831Z,51.30
2017-09-22T08:25:12.413Z,50.70
2017-09-22T08:27:39.967Z,50.70
2017-09-22T08:30:07.525Z,51.40
2017-09-22T08:32:35.082Z,51.10
2017-09-22T08:35:02.639Z,50.20
2017-09-22T08:37:30.229Z,50.50
2017-09-22T08:39:58.550Z,49.40
2017-09-22T08:42:26.108Z,49.40
2017-09-22T08:44:53.664Z,49.50
2017-09-22T08:47:21.218Z,49.60
2017-09-22T08:49:48.802Z,49.00
2017-09-22T08:52:16.355Z,49.00
2017-09-22T08:54:43.913Z,49.60
2017-09-22T08:57:11.474Z,49.10
2017-09-22T08:59:39.031Z,49.50
2017-09-22T09:02:06.614Z,48.10
2017-09-22T09:04:34.187Z,48.10
2017-09-22T09:07:02.524Z,46.60
2017-09-22T09:09:30.078Z,46.60
2017-09-22T09:11:57.633Z,47.40
2017-09-22T09:14:25.218Z,47.50
2017-09-22T09:16:52.770Z,46.50
2017-09-22T09:19:20.331Z,45.80
2017-09-22T09:21:47.906Z,45.50
2017-09-22T09:24:15.498Z,46.40
2017-09-22T09:26:43.083Z,46.10
2017-09-22T09:29:10.638Z,45.90
2017-09-22T09:31:38.195Z,45.50
2017-09-22T09:34:05.759Z,44.60
2017-09-22T09:36:33.315Z,44.70
2017-09-22T09:39:00.899Z,45.10
2017-09-22T09:41:28.456Z,44.60
2017-09-22T09:43:56.013Z,43.80
2017-09-22T09:46:23.569Z,44.40
2017-09-22T09:48:51.121Z,43.00
2017-09-22T09:51:18.710Z,43.30
2017-09-22T09:53:46.261Z,43.80
2017-09-22T09:56:13.822Z,44.30
2017-09-22T09:58:41.378Z,43.90
2017-09-22T10:01:08.931Z,44.20
2017-09-22T10:03:36.517Z,42.90
2017-09-22T10:06:04.841Z,43.50
2017-09-22T10:08:32.386Z,42.80
2017-09-22T10:10:59.940Z,42.50
2017-09-22T10:13:27.499Z,43.10
2017-09-22T10:15:55.081Z,42.90
2017-09-22T10:18:22.636Z,43.10
2017-09-22T10:20:50.191Z,42.00
2017-09-22T10:23:17.742Z,40.30
2017-09-22T10:25:45.299Z,39.80
2017-09-22T10:28:12.882Z,40.60
2017-09-22T10:30:40.473Z,41.00
2017-09-22T10:33:08.039Z,40.20
2017-09-22T10:35:35.599Z,41.20
2017-09-22T10:38:04.674Z,42.20
2017-09-22T10:40:32.262Z,42.30
2017-09-22T10:43:00.588Z,41.30
2017-09-22T10:45:28.145Z,41.20
2017-09-22T10:47:55.699Z,40.90
2017-09-22T10:50:23.280Z,40.50
2017-09-22T10:52:50.873Z,40.20
2017-09-22T10:55:19.197Z,41.20
2017-09-22T10:57:46.774Z,41.20
2017-09-22T11:00:14.330Z,41.90
2017-09-22T11:02:41.894Z,41.50
2017-09-22T11:05:09.451Z,41.80
2017-09-22T11:07:37.048Z,42.40
2017-09-22T11:10:05.539Z,44.00
2017-09-22T11:12:33.886Z,43.70
2017-09-22T11:15:01.480Z,43.70
2017-09-22T11:17:29.828Z,44.60
2017-09-22T11:19:58.111Z,44.50
2017-09-22T11:22:25.666Z,44.70
2017-09-22T11:24:53.226Z,45.30
2017-09-22T11:27:20.788Z,46.00
2017-09-22T11:29:49.133Z,46.70
2017-09-22T11:32:16.690Z,46.70
2017-09-22T11:34:44.254Z,46.80
2017-09-22T11:37:11.806Z,47.10
2017-09-22T11:39:39.370Z,47.20
2017-09-22T11:42:06.946Z,47.20
2017-09-22T11:44:34.534Z,47.20
2017-09-22T11:47:02.870Z,47.90
2017-09-22T11:49:30.438Z,47.90
2017-09-22T11:51:58.064Z,47.90
2017-09-22T11:54:25.658Z,47.70
2017-09-22T11:56:53.218Z,47.80
2017-09-22T11:59:20.804Z,47.80
2017-09-22T12:01:49.131Z,46.60
2017-09-22T12:04:17.318Z,46.50
2017-09-22T12:06:44.897Z,46.50
2017-09-22T12:09:12.550Z,43.80
2017-09-22T12:11:40.142Z,41.20
2017-09-22T12:14:08.501Z,35.90
2017-09-22T12:16:36.061Z,35.10
2017-09-22T12:19:03.613Z,30.90
2017-09-22T12:21:31.234Z,26.40
2017-09-22T12:23:58.794Z,24.70
2017-09-22T12:26:26.352Z,23.10
2017-09-22T12:28:53.937Z,21.70
2017-09-22T12:31:21.495Z,20.90
2017-09-22T12:33:49.056Z,20.10
2017-09-22T12:36:17.230Z,19.40
2017-09-22T12:38:44.793Z,18.50
2017-09-22T12:41:12.393Z,17.90
2017-09-22T12:43:39.957Z,17.70
2017-09-22T12:46:07.514Z,19.20
2017-09-22T12:48:35.103Z,20.40
2017-09-22T12:51:02.659Z,21.90
2017-09-22T12:53:30.265Z,22.90
2017-09-22T12:55:57.846Z,24.40
2017-09-22T12:58:26.456Z,27.50
2017-09-22T13:00:54.022Z,27.40
2017-09-22T13:03:21.582Z,26.00
2017-09-22T13:05:49.174Z,22.80
2017-09-22T13:08:16.729Z,22.20
2017-09-22T13:10:45.077Z,19.70
2017-09-22T13:13:12.633Z,19.60
2017-09-22T13:15:40.777Z,19.10
2017-09-22T13:18:09.133Z,17.20
2017-09-22T13:20:36.686Z,17.20
2017-09-22T13:23:04.250Z,17.60
2017-09-22T13:25:31.823Z,17.30
2017-09-22T13:28:00.766Z,19.20
2017-09-22T13:30:28.358Z,19.20
2017-09-22T13:32:55.910Z,21.20
2017-09-22T13:35:23.469Z,21.70
2017-09-22T13:37:51.050Z,20.70
2017-09-22T13:40:19.378Z,18.40
2017-09-22T13:42:46.958Z,18.40
2017-09-22T13:45:14.553Z,18.60
2017-09-22T13:47:42.131Z,19.30
2017-09-22T13:50:09.697Z,19.60
2017-09-22T13:52:37.261Z,20.30
2017-09-22T13:55:04.861Z,21.40
2017-09-22T13:57:32.418Z,22.60
2017-09-22T13:59:59.978Z,22.60
2017-09-22T14:02:28.298Z,23.00
2017-09-22T14:04:55.871Z,23.00
2017-09-22T14:07:23.482Z,21.50
2017-09-22T14:09:51.038Z,20.90
2017-09-22T14:12:18.594Z,20.00
2017-09-22T14:14:46.220Z,19.10
2017-09-22T14:17:13.786Z,18.60
2017-09-22T14:19:41.379Z,18.00
2017-09-22T14:22:08.934Z,18.00
2017-09-22T14:24:36.487Z,18.70
2017-09-22T14:27:04.058Z,20.30
2017-09-22T14:29:32.396Z,23.80
2017-09-22T14:31:59.997Z,23.80
2017-09-22T14:34:27.554Z,25.30
2017-09-22T14:36:55.246Z,25.90
2017-09-22T14:39:22.806Z,26.30
2017-09-22T14:41:50.366Z,25.50
2017-09-22T14:44:17.953Z,25.50
2017-09-22T14:46:45.518Z,25.30
2017-09-22T14:49:13.077Z,26.20
2017-09-22T14:51:40.636Z,27.20
2017-09-22T14:54:08.192Z,28.10
2017-09-22T14:56:35.774Z,29.10
2017-09-22T14:59:03.339Z,29.40
2017-09-22T15:01:30.900Z,30.90
2017-09-22T15:03:58.455Z,31.70
2017-09-22T15:06:26.010Z,32.80
2017-09-22T15:08:53.589Z,32.50
2017-09-22T15:11:21.948Z,28.10
2017-09-22T15:13:49.514Z,28.10
2017-09-22T15:16:17.074Z,27.70
2017-09-22T15:18:44.621Z,26.00
2017-09-22T15:21:12.202Z,25.40
2017-09-22T15:23:39.762Z,24.90
2017-09-22T15:26:07.321Z,25.20
2017-09-22T15:28:34.890Z,25.00
2017-09-22T15:31:03.216Z,26.90
2017-09-22T15:33:30.901Z,26.80
2017-09-22T15:35:58.458Z,28.00
2017-09-22T15:38:26.120Z,28.60
2017-09-22T15:40:53.681Z,28.90
2017-09-22T15:43:21.242Z,29.20
2017-09-22T15:45:48.823Z,29.90
2017-09-22T15:48:17.154Z,30.00
2017-09-22T15:50:44.714Z,29.50
2017-09-22T15:53:12.269Z,30.00
2017-09-22T15:55:39.863Z,30.70
2017-09-22T15:58:07.454Z,31.80
2017-09-22T16:00:35.787Z,33.80
2017-09-22T16:03:03.342Z,33.70
2017-09-22T16:05:30.894Z,34.30
2017-09-22T16:08:04.418Z,34.60
2017-09-22T16:10:45.512Z,37.20
2017-09-22T16:13:13.817Z,37.10
2017-09-22T16:15:41.448Z,38.10
2017-09-22T16:18:09.781Z,39.30
2017-09-22T16:20:37.333Z,39.20
2017-09-22T16:23:04.883Z,40.50
2017-09-22T16:25:32.444Z,40.80
2017-09-22T16:28:00.039Z,41.40
2017-09-22T16:30:27.599Z,41.70
2017-09-22T16:32:55.916Z,42.80
2017-09-22T16:35:23.471Z,42.80
2017-09-22T16:37:51.795Z,43.90
2017-09-22T16:40:19.386Z,43.90
2017-09-22T16:42:47.716Z,45.90
2017-09-22T16:45:15.371Z,45.50
2017-09-22T16:47:42.918Z,45.70
2017-09-22T16:50:10.470Z,45.60
2017-09-22T16:52:38.055Z,45.70
2017-09-22T16:55:05.614Z,46.00
2017-09-22T16:57:33.175Z,46.10
2017-09-22T17:00:00.731Z,46.50
2017-09-22T17:02:28.290Z,46.70
2017-09-22T17:04:55.875Z,47.00
2017-09-22T17:07:23.434Z,47.50
2017-09-22T17:09:50.994Z,47.60
2017-09-22T17:12:18.555Z,48.10
2017-09-22T17:14:46.143Z,48.40
2017-09-22T17:17:14.490Z,48.80
2017-09-22T17:19:42.050Z,48.80
2017-09-22T17:22:09.610Z,49.30
2017-09-22T17:24:37.162Z,49.50
2017-09-22T17:27:04.726Z,49.70
2017-09-22T17:29:32.317Z,49.90
2017-09-22T17:31:59.902Z,50.20
2017-09-22T17:34:27.453Z,50.30
2017-09-22T17:36:55.006Z,50.50
2017-09-22T17:39:22.566Z,51.10
2017-09-22T17:41:50.154Z,51.00
2017-09-22T17:44:17.710Z,51.00
2017-09-22T17:46:45.882Z,51.00
2017-09-22T17:49:13.439Z,51.40
2017-09-22T17:51:40.999Z,51.70
2017-09-22T17:54:08.581Z,51.90
2017-09-22T17:56:36.145Z,51.90
2017-09-22T17:59:03.707Z,51.80
2017-09-22T18:01:31.271Z,52.00
2017-09-22T18:03:58.826Z,52.20
2017-09-22T18:06:26.410Z,52.80
2017-09-22T18:08:54.749Z,52.70
2017-09-22T18:11:22.302Z,52.70
2017-09-22T18:13:49.854Z,53.10
2017-09-22T18:16:17.414Z,53.40
2017-09-22T18:18:44.999Z,53.60
2017-09-22T18:21:12.554Z,53.70
2017-09-22T18:23:40.110Z,54.00
2017-09-22T18:26:07.673Z,54.20
2017-09-22T18:28:35.233Z,54.20
2017-09-22T18:31:02.814Z,54.20
2017-09-22T18:33:31.143Z,54.50
2017-09-22T18:35:58.699Z,54.50
2017-09-22T18:38:26.259Z,54.40
2017-09-22T18:40:53.814Z,54.70
2017-09-22T18:43:22.264Z,55.00
2017-09-22T18:45:50.586Z,55.00
2017-09-22T18:48:18.147Z,55.00
2017-09-22T18:50:45.707Z,55.00
2017-09-22T18:53:13.258Z,55.20
2017-09-22T18:55:40.850Z,55.40
2017-09-22T18:58:08.414Z,55.60
2017-09-22T19:00:36.738Z,56.40
2017-09-22T19:03:04.301Z,55.70
2017-09-22T19:05:31.855Z,55.90
2017-09-22T19:07:59.438Z,56.20
2017-09-22T19:10:27.009Z,56.30
2017-09-22T19:12:54.561Z,56.30
2017-09-22T19:15:22.114Z,56.20
2017-09-22T19:17:49.674Z,56.60
2017-09-22T19:20:17.269Z,56.90
2017-09-22T19:22:45.622Z,56.90
2017-09-22T19:25:13.177Z,56.90
2017-09-22T19:27:40.731Z,56.40
2017-09-22T19:30:08.286Z,55.90
2017-09-22T19:32:35.861Z,55.90
2017-09-22T19:35:03.422Z,56.30
2017-09-22T19:37:30.977Z,56.00
2017-09-22T19:39:58.530Z,56.20
2017-09-22T19:42:26.084Z,56.20
2017-09-22T19:44:53.667Z,56.10
2017-09-22T19:47:21.998Z,56.90
2017-09-22T19:49:49.559Z,56.30
2017-09-22T19:52:17.126Z,56.30
2017-09-22T19:54:44.684Z,56.10
2017-09-22T19:57:12.264Z,56.30
2017-09-22T19:59:39.814Z,56.40
2017-09-22T20:02:07.369Z,56.60
2017-09-22T20:04:34.925Z,56.60
2017-09-22T20:07:02.478Z,56.50
2017-09-22T20:09:30.062Z,56.80
2017-09-22T20:11:57.622Z,56.80
2017-09-22T20:14:25.186Z,56.50
2017-09-22T20:16:52.744Z,56.90
2017-09-22T20:19:20.303Z,56.80
2017-09-22T20:21:47.893Z,57.20
2017-09-22T20:24:16.218Z,57.10
2017-09-22T20:26:43.770Z,57.00
2017-09-22T20:29:11.350Z,57.60
2017-09-22T20:31:38.914Z,57.80
2017-09-22T20:34:06.495Z,57.50
2017-09-22T20:36:34.818Z,57.60
2017-09-22T20:39:02.387Z,57.60
2017-09-22T20:41:29.943Z,57.60
2017-09-22T20:43:57.498Z,57.70
2017-09-22T20:46:25.077Z,57.40
2017-09-22T20:48:52.629Z,57.00
2017-09-22T20:51:20.189Z,56.90
2017-09-22T20:53:47.747Z,56.60
2017-09-22T20:56:15.310Z,56.50
2017-09-22T20:58:42.971Z,56.50
2017-09-22T21:01:10.524Z,56.50
2017-09-22T21:03:38.081Z,56.60
2017-09-22T21:06:05.638Z,56.30
2017-09-22T21:08:33.208Z,56.40
2017-09-22T21:11:00.790Z,56.30
2017-09-22T21:13:28.346Z,56.20
2017-09-22T21:15:55.905Z,56.40
2017-09-22T21:18:23.458Z,57.10
2017-09-22T21:20:51.015Z,57.30
2017-09-22T21:23:18.601Z,57.30
2017-09-22T21:25:46.923Z,57.30
2017-09-22T21:28:14.477Z,57.20
2017-09-22T21:30:42.029Z,56.90
2017-09-22T21:33:09.586Z,56.80
2017-09-22T21:35:37.283Z,56.90
2017-09-22T21:38:04.834Z,56.80
2017-09-22T21:40:32.384Z,56.70
2017-09-22T21:42:59.944Z,56.70
2017-09-22T21:45:27.501Z,57.10
2017-09-22T21:47:55.084Z,56.60
2017-09-22T21:50:22.637Z,56.60
2017-09-22T21:52:50.200Z,56.60
2017-09-22T21:55:17.754Z,56.80
2017-09-22T21:57:45.311Z,56.80
2017-09-22T22:00:12.894Z,56.80
2017-09-22T22:02:41.222Z,56.80
2017-09-22T22:05:14.659Z,56.70
2017-09-22T22:07:42.216Z,56.50
2017-09-22T22:10:09.770Z,56.60
2017-09-22T22:12:37.334Z,56.70
2017-09-22T22:15:04.894Z,56.70
2017-09-22T22:17:32.481Z,56.50
2017-09-22T22:20:00.040Z,56.50
2017-09-22T22:22:27.602Z,56.50
2017-09-22T22:24:55.154Z,56.80
2017-09-22T22:27:23.478Z,56.80
2017-09-22T22:29:51.072Z,56.80
2017-09-22T22:32:19.400Z,56.60
2017-09-22T22:34:46.973Z,56.50
2017-09-22T22:37:14.530Z,56.40
2017-09-22T22:39:42.085Z,56.40
2017-09-22T22:42:09.670Z,56.70
2017-09-22T22:44:37.233Z,56.90
2017-09-22T22:47:04.805Z,56.80
2017-09-22T22:49:33.129Z,56.80
2017-09-22T22:52:00.685Z,56.80
2017-09-22T22:54:28.269Z,57.00
2017-09-22T22:56:55.822Z,56.90
2017-09-22T22:59:23.385Z,57.40
2017-09-22T23:01:50.948Z,57.80
2017-09-22T23:04:18.497Z,57.60
2017-09-22T23:06:46.080Z,57.40
2017-09-22T23:09:13.638Z,57.30
2017-09-22T23:11:41.190Z,57.00
2017-09-22T23:14:08.758Z,57.10
2017-09-22T23:16:36.318Z,57.50
2017-09-22T23:19:03.902Z,57.50
2017-09-22T23:21:32.222Z,58.10
2017-09-22T23:23:59.789Z,58.00
2017-09-22T23:26:27.338Z,57.70
2017-09-22T23:28:54.893Z,57.40
2017-09-22T23:31:22.474Z,57.40
2017-09-22T23:33:50.030Z,57.30
2017-09-22T23:36:17.577Z,57.00
2017-09-22T23:38:45.133Z,56.80
2017-09-22T23:41:12.694Z,56.80
2017-09-22T23:43:40.474Z,56.50
2017-09-22T23:46:08.026Z,56.60
2017-09-22T23:48:35.585Z,56.70
2017-09-22T23:51:03.138Z,56.50
2017-09-22T23:53:30.691Z,56.90
2017-09-22T23:55:58.274Z,56.80
2017-09-22T23:58:25.831Z,57.00
